sensor_id;sensor_type;location;lat;lon;timestamp;pressure;altitude;pressure_sealevel;temperature;humidity
16690;BME280;8458;52.220;9.884;2023-06-14T00:01:01;100835.94;;;19.15;49.04
16690;BME280;8458;52.220;9.884;2023-06-14T00:03:31;100834.50;;;19.18;48.83
16690;BME280;8458;52.220;9.884;2023-06-14T00:05:58;100834.91;;;19.11;49.00
16690;BME280;8458;52.220;9.884;2023-06-14T00:08:24;100836.50;;;19.04;49.42
16690;BME280;8458;52.220;9.884;2023-06-14T00:10:51;100843.66;;;19.10;49.34
16690;BME280;8458;52.220;9.884;2023-06-14T00:13:17;100847.44;;;19.05;49.91
16690;BME280;8458;52.220;9.884;2023-06-14T00:15:44;100848.59;;;19.04;49.79
16690;BME280;8458;52.220;9.884;2023-06-14T00:18:13;100856.75;;;18.92;50.32
16690;BME280;8458;52.220;9.884;2023-06-14T00:20:40;100850.81;;;18.93;50.21
16690;BME280;8458;52.220;9.884;2023-06-14T00:23:08;100850.59;;;18.90;50.34
16690;BME280;8458;52.220;9.884;2023-06-14T00:25:34;100849.78;;;18.89;49.75
16690;BME280;8458;52.220;9.884;2023-06-14T00:28:00;100849.81;;;18.75;49.66
16690;BME280;8458;52.220;9.884;2023-06-14T00:30:27;100858.44;;;18.65;49.72
16690;BME280;8458;52.220;9.884;2023-06-14T00:32:56;100856.59;;;18.46;50.48
16690;BME280;8458;52.220;9.884;2023-06-14T00:35:24;100861.41;;;18.32;51.05
16690;BME280;8458;52.220;9.884;2023-06-14T00:37:50;100856.03;;;18.22;51.58
16690;BME280;8458;52.220;9.884;2023-06-14T00:40:17;100855.28;;;18.30;51.43
16690;BME280;8458;52.220;9.884;2023-06-14T00:42:43;100858.22;;;18.25;51.87
16690;BME280;8458;52.220;9.884;2023-06-14T00:45:10;100854.88;;;18.23;51.86
16690;BME280;8458;52.220;9.884;2023-06-14T00:47:37;100854.47;;;18.16;52.16
16690;BME280;8458;52.220;9.884;2023-06-14T00:50:07;100861.97;;;18.06;52.55
16690;BME280;8458;52.220;9.884;2023-06-14T00:52:35;100854.47;;;18.02;52.60
16690;BME280;8458;52.220;9.884;2023-06-14T00:55:03;100863.41;;;18.04;52.73
16690;BME280;8458;52.220;9.884;2023-06-14T00:57:29;100859.84;;;17.98;53.09
16690;BME280;8458;52.220;9.884;2023-06-14T00:59:56;100859.03;;;17.98;53.28
16690;BME280;8458;52.220;9.884;2023-06-14T01:02:23;100866.94;;;17.96;52.94
16690;BME280;8458;52.220;9.884;2023-06-14T01:04:50;100861.63;;;17.94;52.41
16690;BME280;8458;52.220;9.884;2023-06-14T01:07:23;100872.94;;;17.89;53.14
16690;BME280;8458;52.220;9.884;2023-06-14T01:10:02;100866.78;;;17.87;53.23
16690;BME280;8458;52.220;9.884;2023-06-14T01:12:37;100867.31;;;17.89;53.36
16690;BME280;8458;52.220;9.884;2023-06-14T01:15:06;100874.59;;;17.90;52.98
16690;BME280;8458;52.220;9.884;2023-06-14T01:17:34;100873.53;;;17.86;52.42
16690;BME280;8458;52.220;9.884;2023-06-14T01:20:01;100870.38;;;17.73;52.41
16690;BME280;8458;52.220;9.884;2023-06-14T01:22:28;100871.22;;;17.60;52.53
16690;BME280;8458;52.220;9.884;2023-06-14T01:24:56;100866.94;;;17.63;52.72
16690;BME280;8458;52.220;9.884;2023-06-14T01:27:23;100875.16;;;17.59;53.46
16690;BME280;8458;52.220;9.884;2023-06-14T01:29:54;100884.06;;;17.61;53.62
16690;BME280;8458;52.220;9.884;2023-06-14T01:32:23;100879.31;;;17.62;53.68
16690;BME280;8458;52.220;9.884;2023-06-14T01:34:51;100869.34;;;17.55;53.43
16690;BME280;8458;52.220;9.884;2023-06-14T01:37:18;100871.81;;;17.57;53.86
16690;BME280;8458;52.220;9.884;2023-06-14T01:39:47;100875.75;;;17.56;53.87
16690;BME280;8458;52.220;9.884;2023-06-14T01:42:16;100869.09;;;17.52;53.84
16690;BME280;8458;52.220;9.884;2023-06-14T01:44:44;100873.66;;;17.48;54.04
16690;BME280;8458;52.220;9.884;2023-06-14T01:47:11;100880.50;;;17.42;54.38
16690;BME280;8458;52.220;9.884;2023-06-14T01:49:38;100879.88;;;17.45;54.17
16690;BME280;8458;52.220;9.884;2023-06-14T01:52:05;100879.03;;;17.44;54.00
16690;BME280;8458;52.220;9.884;2023-06-14T01:54:35;100876.53;;;17.43;53.57
16690;BME280;8458;52.220;9.884;2023-06-14T01:57:03;100876.03;;;17.41;53.76
16690;BME280;8458;52.220;9.884;2023-06-14T01:59:31;100878.41;;;17.47;53.52
16690;BME280;8458;52.220;9.884;2023-06-14T02:02:00;100877.56;;;17.33;53.88
16690;BME280;8458;52.220;9.884;2023-06-14T02:04:26;100877.75;;;17.36;53.91
16690;BME280;8458;52.220;9.884;2023-06-14T02:06:53;100875.66;;;17.28;54.36
16690;BME280;8458;52.220;9.884;2023-06-14T02:09:19;100876.28;;;17.25;54.66
16690;BME280;8458;52.220;9.884;2023-06-14T02:11:46;100883.56;;;17.26;54.52
16690;BME280;8458;52.220;9.884;2023-06-14T02:14:12;100886.41;;;17.21;54.24
16690;BME280;8458;52.220;9.884;2023-06-14T02:16:41;100881.00;;;17.11;54.79
16690;BME280;8458;52.220;9.884;2023-06-14T02:19:14;100884.94;;;17.10;55.16
16690;BME280;8458;52.220;9.884;2023-06-14T02:21:40;100876.00;;;17.08;55.39
16690;BME280;8458;52.220;9.884;2023-06-14T02:24:07;100880.53;;;17.03;55.25
16690;BME280;8458;52.220;9.884;2023-06-14T02:26:33;100878.97;;;16.97;54.81
16690;BME280;8458;52.220;9.884;2023-06-14T02:29:00;100876.31;;;17.06;54.41
16690;BME280;8458;52.220;9.884;2023-06-14T02:31:26;100874.72;;;17.00;54.58
16690;BME280;8458;52.220;9.884;2023-06-14T02:33:55;100877.84;;;16.98;55.05
16690;BME280;8458;52.220;9.884;2023-06-14T02:36:22;100873.66;;;16.96;55.16
16690;BME280;8458;52.220;9.884;2023-06-14T02:38:49;100883.44;;;16.98;54.78
16690;BME280;8458;52.220;9.884;2023-06-14T02:41:15;100885.25;;;16.89;55.06
16690;BME280;8458;52.220;9.884;2023-06-14T02:43:43;100894.81;;;16.83;55.44
16690;BME280;8458;52.220;9.884;2023-06-14T02:46:09;100905.03;;;16.74;55.44
16690;BME280;8458;52.220;9.884;2023-06-14T02:48:36;100896.94;;;16.72;55.97
16690;BME280;8458;52.220;9.884;2023-06-14T02:51:04;100895.03;;;16.67;55.90
16690;BME280;8458;52.220;9.884;2023-06-14T02:53:31;100900.72;;;16.62;56.15
16690;BME280;8458;52.220;9.884;2023-06-14T02:55:57;100910.53;;;16.60;56.25
16690;BME280;8458;52.220;9.884;2023-06-14T02:58:24;100911.91;;;16.62;55.70
16690;BME280;8458;52.220;9.884;2023-06-14T03:00:51;100908.63;;;16.55;55.92
16690;BME280;8458;52.220;9.884;2023-06-14T03:03:18;100907.13;;;16.44;56.34
16690;BME280;8458;52.220;9.884;2023-06-14T03:05:47;100919.63;;;16.52;56.43
16690;BME280;8458;52.220;9.884;2023-06-14T03:08:16;100919.06;;;16.49;56.45
16690;BME280;8458;52.220;9.884;2023-06-14T03:10:45;100912.94;;;16.47;56.42
16690;BME280;8458;52.220;9.884;2023-06-14T03:13:12;100911.56;;;16.45;56.32
16690;BME280;8458;52.220;9.884;2023-06-14T03:15:38;100921.22;;;16.34;56.73
16690;BME280;8458;52.220;9.884;2023-06-14T03:18:07;100920.13;;;16.29;57.12
16690;BME280;8458;52.220;9.884;2023-06-14T03:20:34;100912.47;;;16.16;57.50
16690;BME280;8458;52.220;9.884;2023-06-14T03:23:01;100924.28;;;16.08;57.76
16690;BME280;8458;52.220;9.884;2023-06-14T03:25:29;100926.84;;;16.04;57.40
16690;BME280;8458;52.220;9.884;2023-06-14T03:27:56;100930.53;;;16.00;57.48
16690;BME280;8458;52.220;9.884;2023-06-14T03:30:23;100933.09;;;15.96;57.68
16690;BME280;8458;52.220;9.884;2023-06-14T03:32:50;100936.72;;;15.97;57.99
16690;BME280;8458;52.220;9.884;2023-06-14T03:35:17;100929.44;;;15.95;58.37
16690;BME280;8458;52.220;9.884;2023-06-14T03:37:43;100925.91;;;15.90;58.95
16690;BME280;8458;52.220;9.884;2023-06-14T03:40:12;100930.91;;;15.93;59.22
16690;BME280;8458;52.220;9.884;2023-06-14T03:42:40;100935.63;;;15.92;59.42
16690;BME280;8458;52.220;9.884;2023-06-14T03:45:07;100942.63;;;15.95;59.57
16690;BME280;8458;52.220;9.884;2023-06-14T03:47:34;100946.22;;;15.95;59.85
16690;BME280;8458;52.220;9.884;2023-06-14T03:50:01;100946.28;;;15.90;60.01
16690;BME280;8458;52.220;9.884;2023-06-14T03:52:27;100952.41;;;15.92;59.73
16690;BME280;8458;52.220;9.884;2023-06-14T03:54:54;100947.69;;;15.93;59.51
16690;BME280;8458;52.220;9.884;2023-06-14T03:57:22;100957.41;;;15.95;59.47
16690;BME280;8458;52.220;9.884;2023-06-14T03:59:51;100963.00;;;15.95;59.60
16690;BME280;8458;52.220;9.884;2023-06-14T04:02:17;100966.97;;;15.94;59.67
16690;BME280;8458;52.220;9.884;2023-06-14T04:04:44;100965.22;;;15.99;59.54
16690;BME280;8458;52.220;9.884;2023-06-14T04:07:11;100962.41;;;15.99;59.36
16690;BME280;8458;52.220;9.884;2023-06-14T04:09:38;100965.88;;;15.90;59.53
16690;BME280;8458;52.220;9.884;2023-06-14T04:12:05;100958.66;;;15.84;59.74
16690;BME280;8458;52.220;9.884;2023-06-14T04:14:33;100963.13;;;15.85;59.90
16690;BME280;8458;52.220;9.884;2023-06-14T04:17:01;100959.78;;;15.83;60.16
16690;BME280;8458;52.220;9.884;2023-06-14T04:19:28;100960.28;;;15.90;60.04
16690;BME280;8458;52.220;9.884;2023-06-14T04:21:54;100955.28;;;15.87;60.39
16690;BME280;8458;52.220;9.884;2023-06-14T04:24:21;100965.56;;;15.92;60.77
16690;BME280;8458;52.220;9.884;2023-06-14T04:26:49;100962.03;;;15.81;61.44
16690;BME280;8458;52.220;9.884;2023-06-14T04:29:17;100970.38;;;15.86;61.59
16690;BME280;8458;52.220;9.884;2023-06-14T04:31:45;100971.56;;;15.80;62.10
16690;BME280;8458;52.220;9.884;2023-06-14T04:34:13;100973.25;;;15.76;62.15
16690;BME280;8458;52.220;9.884;2023-06-14T04:36:41;100986.13;;;15.72;62.45
16690;BME280;8458;52.220;9.884;2023-06-14T04:39:08;100983.16;;;15.63;63.01
16690;BME280;8458;52.220;9.884;2023-06-14T04:41:34;100987.41;;;15.50;63.89
16690;BME280;8458;52.220;9.884;2023-06-14T04:44:02;100988.56;;;15.44;64.62
16690;BME280;8458;52.220;9.884;2023-06-14T04:46:29;100994.78;;;15.36;65.27
16690;BME280;8458;52.220;9.884;2023-06-14T04:48:57;100995.59;;;15.36;65.90
16690;BME280;8458;52.220;9.884;2023-06-14T04:51:28;100994.22;;;15.39;66.28
16690;BME280;8458;52.220;9.884;2023-06-14T04:53:56;100997.28;;;15.37;66.65
16690;BME280;8458;52.220;9.884;2023-06-14T04:56:23;101002.59;;;15.39;67.00
16690;BME280;8458;52.220;9.884;2023-06-14T04:58:50;100993.63;;;15.42;67.02
16690;BME280;8458;52.220;9.884;2023-06-14T05:01:17;100995.31;;;15.38;67.32
16690;BME280;8458;52.220;9.884;2023-06-14T05:03:43;100999.53;;;15.35;67.82
16690;BME280;8458;52.220;9.884;2023-06-14T05:06:10;100996.47;;;15.32;68.06
16690;BME280;8458;52.220;9.884;2023-06-14T05:08:38;100999.28;;;15.32;68.50
16690;BME280;8458;52.220;9.884;2023-06-14T05:11:05;101002.63;;;15.34;68.49
16690;BME280;8458;52.220;9.884;2023-06-14T05:13:31;101002.91;;;15.32;68.51
16690;BME280;8458;52.220;9.884;2023-06-14T05:15:59;101004.28;;;15.35;68.85
16690;BME280;8458;52.220;9.884;2023-06-14T05:18:26;101012.91;;;15.44;68.78
16690;BME280;8458;52.220;9.884;2023-06-14T05:20:53;101002.53;;;15.44;69.11
16690;BME280;8458;52.220;9.884;2023-06-14T05:23:19;101014.81;;;15.48;68.83
16690;BME280;8458;52.220;9.884;2023-06-14T05:25:47;101011.09;;;15.58;69.40
16690;BME280;8458;52.220;9.884;2023-06-14T05:28:14;101018.59;;;15.68;69.33
16690;BME280;8458;52.220;9.884;2023-06-14T05:30:41;101010.75;;;15.70;68.89
16690;BME280;8458;52.220;9.884;2023-06-14T05:33:08;101013.50;;;15.75;68.58
16690;BME280;8458;52.220;9.884;2023-06-14T05:35:34;101012.66;;;15.74;67.96
16690;BME280;8458;52.220;9.884;2023-06-14T05:38:01;101009.59;;;15.76;67.02
16690;BME280;8458;52.220;9.884;2023-06-14T05:40:28;101016.31;;;15.80;67.84
16690;BME280;8458;52.220;9.884;2023-06-14T05:42:55;101017.59;;;15.88;67.90
16690;BME280;8458;52.220;9.884;2023-06-14T05:45:22;101030.13;;;15.95;67.73
16690;BME280;8458;52.220;9.884;2023-06-14T05:47:49;101019.44;;;16.03;67.24
16690;BME280;8458;52.220;9.884;2023-06-14T05:50:15;101018.03;;;16.05;67.80
16690;BME280;8458;52.220;9.884;2023-06-14T05:52:42;101020.19;;;16.13;66.94
16690;BME280;8458;52.220;9.884;2023-06-14T05:55:09;101024.84;;;16.23;66.14
16690;BME280;8458;52.220;9.884;2023-06-14T05:57:37;101027.59;;;16.28;66.29
16690;BME280;8458;52.220;9.884;2023-06-14T06:00:06;101020.56;;;16.31;65.87
16690;BME280;8458;52.220;9.884;2023-06-14T06:02:39;101022.75;;;16.39;65.43
16690;BME280;8458;52.220;9.884;2023-06-14T06:05:06;101027.97;;;16.46;65.29
16690;BME280;8458;52.220;9.884;2023-06-14T06:07:33;101029.34;;;16.48;65.50
16690;BME280;8458;52.220;9.884;2023-06-14T06:10:00;101033.47;;;16.56;66.24
16690;BME280;8458;52.220;9.884;2023-06-14T06:12:26;101032.28;;;16.62;66.27
16690;BME280;8458;52.220;9.884;2023-06-14T06:14:53;101036.09;;;16.72;65.43
16690;BME280;8458;52.220;9.884;2023-06-14T06:17:21;101037.44;;;16.74;65.13
16690;BME280;8458;52.220;9.884;2023-06-14T06:19:48;101020.34;;;16.76;64.74
16690;BME280;8458;52.220;9.884;2023-06-14T06:22:14;101030.72;;;16.75;64.83
16690;BME280;8458;52.220;9.884;2023-06-14T06:24:42;101034.91;;;16.78;65.14
16690;BME280;8458;52.220;9.884;2023-06-14T06:27:08;101031.47;;;16.86;65.42
16690;BME280;8458;52.220;9.884;2023-06-14T06:29:35;101036.69;;;16.93;64.27
16690;BME280;8458;52.220;9.884;2023-06-14T06:32:02;101036.66;;;16.98;65.32
16690;BME280;8458;52.220;9.884;2023-06-14T06:34:30;101035.16;;;17.06;64.41
16690;BME280;8458;52.220;9.884;2023-06-14T06:36:56;101044.84;;;17.13;64.10
16690;BME280;8458;52.220;9.884;2023-06-14T06:39:23;101044.19;;;17.22;65.48
16690;BME280;8458;52.220;9.884;2023-06-14T06:41:50;101048.28;;;17.29;64.92
16690;BME280;8458;52.220;9.884;2023-06-14T06:44:16;101047.00;;;17.41;64.86
16690;BME280;8458;52.220;9.884;2023-06-14T06:46:43;101053.06;;;17.48;63.67
16690;BME280;8458;52.220;9.884;2023-06-14T06:49:10;101043.97;;;17.56;63.63
16690;BME280;8458;52.220;9.884;2023-06-14T06:51:40;101052.84;;;17.63;64.26
16690;BME280;8458;52.220;9.884;2023-06-14T06:54:08;101055.25;;;17.70;62.64
16690;BME280;8458;52.220;9.884;2023-06-14T06:56:34;101061.53;;;17.81;62.43
16690;BME280;8458;52.220;9.884;2023-06-14T06:59:01;101058.06;;;17.89;62.65
16690;BME280;8458;52.220;9.884;2023-06-14T07:01:27;101065.41;;;18.04;63.20
16690;BME280;8458;52.220;9.884;2023-06-14T07:03:54;101058.78;;;18.14;61.36
16690;BME280;8458;52.220;9.884;2023-06-14T07:06:20;101069.00;;;18.23;61.21
16690;BME280;8458;52.220;9.884;2023-06-14T07:08:48;101072.16;;;18.36;60.58
16690;BME280;8458;52.220;9.884;2023-06-14T07:11:15;101064.47;;;18.41;58.35
16690;BME280;8458;52.220;9.884;2023-06-14T07:13:41;101073.44;;;18.43;57.79
16690;BME280;8458;52.220;9.884;2023-06-14T07:16:08;101068.84;;;18.48;58.59
16690;BME280;8458;52.220;9.884;2023-06-14T07:18:34;101071.78;;;18.56;58.55
16690;BME280;8458;52.220;9.884;2023-06-14T07:21:02;101070.00;;;18.60;58.96
16690;BME280;8458;52.220;9.884;2023-06-14T07:23:29;101083.53;;;18.72;59.49
16690;BME280;8458;52.220;9.884;2023-06-14T07:25:57;101082.00;;;18.80;58.12
16690;BME280;8458;52.220;9.884;2023-06-14T07:28:23;101079.50;;;18.78;56.28
16690;BME280;8458;52.220;9.884;2023-06-14T07:30:50;101078.28;;;18.85;57.29
16690;BME280;8458;52.220;9.884;2023-06-14T07:33:16;101082.03;;;18.94;56.81
16690;BME280;8458;52.220;9.884;2023-06-14T07:35:43;101083.47;;;19.05;57.27
16690;BME280;8458;52.220;9.884;2023-06-14T07:38:09;101075.59;;;19.07;55.19
16690;BME280;8458;52.220;9.884;2023-06-14T07:40:36;101082.84;;;19.08;54.37
16690;BME280;8458;52.220;9.884;2023-06-14T07:43:03;101083.91;;;19.12;54.15
16690;BME280;8458;52.220;9.884;2023-06-14T07:45:30;101072.03;;;19.15;55.09
16690;BME280;8458;52.220;9.884;2023-06-14T07:47:56;101070.16;;;19.25;56.19
16690;BME280;8458;52.220;9.884;2023-06-14T07:50:23;101076.06;;;19.37;56.23
16690;BME280;8458;52.220;9.884;2023-06-14T07:52:49;101075.31;;;19.45;55.21
16690;BME280;8458;52.220;9.884;2023-06-14T07:55:16;101081.53;;;19.56;54.92
16690;BME280;8458;52.220;9.884;2023-06-14T07:57:42;101079.44;;;19.62;54.15
16690;BME280;8458;52.220;9.884;2023-06-14T08:00:11;101077.88;;;19.69;54.23
16690;BME280;8458;52.220;9.884;2023-06-14T08:02:40;101078.91;;;19.74;51.80
16690;BME280;8458;52.220;9.884;2023-06-14T08:05:09;101085.66;;;19.73;51.52
16690;BME280;8458;52.220;9.884;2023-06-14T08:07:36;101080.88;;;19.73;50.93
16690;BME280;8458;52.220;9.884;2023-06-14T08:10:02;101080.50;;;19.66;51.30
16690;BME280;8458;52.220;9.884;2023-06-14T08:12:29;101078.19;;;19.68;52.26
16690;BME280;8458;52.220;9.884;2023-06-14T08:14:55;101084.84;;;19.72;52.10
16690;BME280;8458;52.220;9.884;2023-06-14T08:17:23;101083.56;;;19.78;51.57
16690;BME280;8458;52.220;9.884;2023-06-14T08:19:50;101081.81;;;19.82;51.30
16690;BME280;8458;52.220;9.884;2023-06-14T08:22:16;101080.41;;;19.94;51.21
16690;BME280;8458;52.220;9.884;2023-06-14T08:24:43;101082.25;;;19.98;51.12
16690;BME280;8458;52.220;9.884;2023-06-14T08:27:10;101086.19;;;20.11;52.25
16690;BME280;8458;52.220;9.884;2023-06-14T08:29:36;101079.63;;;20.24;50.89
16690;BME280;8458;52.220;9.884;2023-06-14T08:32:05;101083.16;;;20.30;50.15
16690;BME280;8458;52.220;9.884;2023-06-14T08:34:33;101083.88;;;20.36;50.56
16690;BME280;8458;52.220;9.884;2023-06-14T08:37:00;101079.75;;;20.42;49.72
16690;BME280;8458;52.220;9.884;2023-06-14T08:39:26;101088.44;;;20.54;49.72
16690;BME280;8458;52.220;9.884;2023-06-14T08:41:54;101084.00;;;20.62;49.66
16690;BME280;8458;52.220;9.884;2023-06-14T08:44:22;101083.81;;;20.58;48.83
16690;BME280;8458;52.220;9.884;2023-06-14T08:46:50;101092.47;;;20.62;49.39
16690;BME280;8458;52.220;9.884;2023-06-14T08:49:19;101087.22;;;20.69;49.34
16690;BME280;8458;52.220;9.884;2023-06-14T08:51:50;101078.31;;;20.76;49.54
16690;BME280;8458;52.220;9.884;2023-06-14T08:54:20;101077.34;;;20.89;48.50
16690;BME280;8458;52.220;9.884;2023-06-14T08:56:47;101080.38;;;21.02;47.20
16690;BME280;8458;52.220;9.884;2023-06-14T08:59:14;101087.03;;;21.06;47.12
16690;BME280;8458;52.220;9.884;2023-06-14T09:01:43;101079.72;;;21.05;47.92
16690;BME280;8458;52.220;9.884;2023-06-14T09:04:13;101089.00;;;20.97;48.34
16690;BME280;8458;52.220;9.884;2023-06-14T09:06:39;101080.69;;;20.91;48.88
16690;BME280;8458;52.220;9.884;2023-06-14T09:09:07;101089.84;;;21.06;47.79
16690;BME280;8458;52.220;9.884;2023-06-14T09:11:35;101086.72;;;21.16;48.19
16690;BME280;8458;52.220;9.884;2023-06-14T09:14:01;101090.41;;;21.25;47.44
16690;BME280;8458;52.220;9.884;2023-06-14T09:16:28;101084.78;;;21.34;48.23
16690;BME280;8458;52.220;9.884;2023-06-14T09:18:54;101091.13;;;21.48;46.89
16690;BME280;8458;52.220;9.884;2023-06-14T09:21:21;101095.13;;;21.56;47.43
16690;BME280;8458;52.220;9.884;2023-06-14T09:23:47;101094.34;;;21.64;46.40
16690;BME280;8458;52.220;9.884;2023-06-14T09:26:16;101096.50;;;21.67;46.26
16690;BME280;8458;52.220;9.884;2023-06-14T09:28:45;101094.31;;;21.73;46.35
16690;BME280;8458;52.220;9.884;2023-06-14T09:31:13;101097.16;;;21.82;46.06
16690;BME280;8458;52.220;9.884;2023-06-14T09:33:41;101090.69;;;21.81;45.64
16690;BME280;8458;52.220;9.884;2023-06-14T09:36:15;101096.00;;;21.92;46.75
16690;BME280;8458;52.220;9.884;2023-06-14T09:38:42;101095.66;;;22.02;46.25
16690;BME280;8458;52.220;9.884;2023-06-14T09:41:08;101098.50;;;22.11;46.07
16690;BME280;8458;52.220;9.884;2023-06-14T09:43:36;101102.16;;;22.20;45.70
16690;BME280;8458;52.220;9.884;2023-06-14T09:46:04;101096.31;;;22.25;44.68
16690;BME280;8458;52.220;9.884;2023-06-14T09:48:31;101092.16;;;22.23;44.41
16690;BME280;8458;52.220;9.884;2023-06-14T09:50:58;101087.84;;;22.25;43.57
16690;BME280;8458;52.220;9.884;2023-06-14T09:53:25;101085.50;;;22.27;44.31
16690;BME280;8458;52.220;9.884;2023-06-14T09:55:54;101075.88;;;22.28;45.17
16690;BME280;8458;52.220;9.884;2023-06-14T09:58:26;101085.19;;;22.37;44.72
16690;BME280;8458;52.220;9.884;2023-06-14T10:00:54;101090.81;;;22.46;44.39
16690;BME280;8458;52.220;9.884;2023-06-14T10:03:24;101083.97;;;22.56;43.51
16690;BME280;8458;52.220;9.884;2023-06-14T10:05:52;101083.25;;;22.68;44.64
16690;BME280;8458;52.220;9.884;2023-06-14T10:08:20;101084.03;;;22.86;44.40
16690;BME280;8458;52.220;9.884;2023-06-14T10:10:50;101077.22;;;22.87;43.75
16690;BME280;8458;52.220;9.884;2023-06-14T10:13:17;101081.19;;;22.95;44.57
16690;BME280;8458;52.220;9.884;2023-06-14T10:15:54;101085.31;;;22.97;43.85
16690;BME280;8458;52.220;9.884;2023-06-14T10:18:30;101078.28;;;23.03;43.44
16690;BME280;8458;52.220;9.884;2023-06-14T10:21:05;101077.81;;;23.10;44.05
16690;BME280;8458;52.220;9.884;2023-06-14T10:23:37;101082.81;;;23.34;43.87
16690;BME280;8458;52.220;9.884;2023-06-14T10:26:07;101071.41;;;23.52;42.95
16690;BME280;8458;52.220;9.884;2023-06-14T10:28:37;101067.97;;;23.67;42.96
16690;BME280;8458;52.220;9.884;2023-06-14T10:31:06;101064.00;;;23.80;42.26
16690;BME280;8458;52.220;9.884;2023-06-14T10:33:34;101065.16;;;23.79;42.19
16690;BME280;8458;52.220;9.884;2023-06-14T10:36:08;101065.94;;;23.89;43.93
16690;BME280;8458;52.220;9.884;2023-06-14T10:38:36;101068.50;;;23.81;42.08
16690;BME280;8458;52.220;9.884;2023-06-14T10:41:04;101063.13;;;23.68;41.82
16690;BME280;8458;52.220;9.884;2023-06-14T10:43:31;101065.44;;;23.44;41.45
16690;BME280;8458;52.220;9.884;2023-06-14T10:46:18;101064.88;;;23.30;42.12
16690;BME280;8458;52.220;9.884;2023-06-14T10:48:48;101060.44;;;23.20;42.86
16690;BME280;8458;52.220;9.884;2023-06-14T10:51:16;101058.34;;;23.08;43.55
16690;BME280;8458;52.220;9.884;2023-06-14T10:53:45;101052.38;;;23.01;42.83
16690;BME280;8458;52.220;9.884;2023-06-14T10:56:23;101043.88;;;23.01;43.05
16690;BME280;8458;52.220;9.884;2023-06-14T10:58:51;101040.03;;;23.06;44.61
16690;BME280;8458;52.220;9.884;2023-06-14T11:01:28;101039.94;;;23.23;45.02
16690;BME280;8458;52.220;9.884;2023-06-14T11:04:06;101039.50;;;23.42;44.21
16690;BME280;8458;52.220;9.884;2023-06-14T11:06:45;101036.06;;;23.58;43.46
16690;BME280;8458;52.220;9.884;2023-06-14T11:09:27;101029.28;;;23.71;44.08
16690;BME280;8458;52.220;9.884;2023-06-14T11:12:03;101040.34;;;23.85;42.98
16690;BME280;8458;52.220;9.884;2023-06-14T11:14:31;101042.94;;;23.90;43.52
16690;BME280;8458;52.220;9.884;2023-06-14T11:16:59;101030.50;;;23.83;42.49
16690;BME280;8458;52.220;9.884;2023-06-14T11:19:26;101041.06;;;23.73;43.00
16690;BME280;8458;52.220;9.884;2023-06-14T11:21:54;101034.19;;;23.62;42.79
16690;BME280;8458;52.220;9.884;2023-06-14T11:24:20;101031.28;;;23.50;43.76
16690;BME280;8458;52.220;9.884;2023-06-14T11:26:47;101032.47;;;23.49;43.71
16690;BME280;8458;52.220;9.884;2023-06-14T11:29:15;101032.72;;;23.56;44.20
16690;BME280;8458;52.220;9.884;2023-06-14T11:31:43;101035.72;;;23.59;43.22
16690;BME280;8458;52.220;9.884;2023-06-14T11:34:12;101017.41;;;23.57;43.30
16690;BME280;8458;52.220;9.884;2023-06-14T11:36:39;101022.03;;;23.61;43.45
16690;BME280;8458;52.220;9.884;2023-06-14T11:39:06;101025.41;;;23.76;45.08
16690;BME280;8458;52.220;9.884;2023-06-14T11:41:36;101018.94;;;23.75;43.37
16690;BME280;8458;52.220;9.884;2023-06-14T11:44:03;101022.66;;;23.67;43.45
16690;BME280;8458;52.220;9.884;2023-06-14T11:46:29;101020.03;;;23.62;43.27
16690;BME280;8458;52.220;9.884;2023-06-14T11:48:56;101012.44;;;23.54;43.96
16690;BME280;8458;52.220;9.884;2023-06-14T11:51:24;101014.53;;;23.44;44.35
16690;BME280;8458;52.220;9.884;2023-06-14T11:53:51;101014.53;;;23.44;44.52
16690;BME280;8458;52.220;9.884;2023-06-14T11:56:18;101017.06;;;23.37;43.41
16690;BME280;8458;52.220;9.884;2023-06-14T11:58:45;101023.28;;;23.31;44.32
16690;BME280;8458;52.220;9.884;2023-06-14T12:01:15;101022.28;;;23.26;44.94
16690;BME280;8458;52.220;9.884;2023-06-14T12:03:47;101008.56;;;23.37;45.75
16690;BME280;8458;52.220;9.884;2023-06-14T12:06:14;101012.03;;;23.43;45.10
16690;BME280;8458;52.220;9.884;2023-06-14T12:08:42;101013.63;;;23.53;44.71
16690;BME280;8458;52.220;9.884;2023-06-14T12:11:11;101014.13;;;23.55;45.25
16690;BME280;8458;52.220;9.884;2023-06-14T12:13:39;101009.16;;;23.52;44.29
16690;BME280;8458;52.220;9.884;2023-06-14T12:16:07;100999.06;;;23.63;45.74
16690;BME280;8458;52.220;9.884;2023-06-14T12:18:34;101006.91;;;23.78;45.09
16690;BME280;8458;52.220;9.884;2023-06-14T12:21:02;101004.84;;;23.88;45.03
16690;BME280;8458;52.220;9.884;2023-06-14T12:23:45;101012.66;;;23.91;43.46
16690;BME280;8458;52.220;9.884;2023-06-14T12:26:16;101005.56;;;23.85;43.93
16690;BME280;8458;52.220;9.884;2023-06-14T12:28:44;101007.19;;;23.86;43.10
16690;BME280;8458;52.220;9.884;2023-06-14T12:31:12;101007.13;;;23.94;43.54
16690;BME280;8458;52.220;9.884;2023-06-14T12:33:39;101006.56;;;24.13;45.18
16690;BME280;8458;52.220;9.884;2023-06-14T12:36:07;100994.56;;;24.29;43.23
16690;BME280;8458;52.220;9.884;2023-06-14T12:38:33;100992.13;;;24.52;42.28
16690;BME280;8458;52.220;9.884;2023-06-14T12:41:01;100991.34;;;24.64;42.62
16690;BME280;8458;52.220;9.884;2023-06-14T12:43:28;101000.44;;;24.57;42.70
16690;BME280;8458;52.220;9.884;2023-06-14T12:45:55;101003.81;;;24.50;42.57
16690;BME280;8458;52.220;9.884;2023-06-14T12:48:21;100997.94;;;24.43;43.75
16690;BME280;8458;52.220;9.884;2023-06-14T12:50:48;101003.09;;;24.41;44.05
16690;BME280;8458;52.220;9.884;2023-06-14T12:53:14;101003.81;;;24.38;43.54
16690;BME280;8458;52.220;9.884;2023-06-14T12:55:41;100999.56;;;24.44;42.71
16690;BME280;8458;52.220;9.884;2023-06-14T12:58:09;101001.47;;;24.52;44.03
16690;BME280;8458;52.220;9.884;2023-06-14T13:00:37;100990.66;;;24.67;44.25
16690;BME280;8458;52.220;9.884;2023-06-14T13:03:04;100991.09;;;24.81;43.71